Time;durP1;ratioP1;P1;durP2;ratioP2;P2;SDS_P1;SDS_P2;PMS_P1;PMS_P2;Temp;Humidity;BMP_temperature;BMP_pressure;BME280_temperature;BME280_humidity;BME280_pressure;Samples;Min_cycle;Max_cycle;Signal;HPM_P1;HPM_P2
2024/01/17 00:03:54;;;;;;;;;;;;;;;16.16;39.27;98331.03;10325810;28;750;-70
2024/01/17 00:08:50;;;;;;;;;;;;;;;16.16;39.60;98327.56;10326319;28;1919;-69
2024/01/17 00:13:46;;;;;;;;;;;;;;;16.15;39.39;98317.97;10325164;28;1099;-69
2024/01/17 00:18:42;;;;;;;;;;;;;;;16.12;39.44;98319.00;10324262;28;1390;-69
2024/01/17 00:23:38;;;;;;;;;;;;;;;16.15;39.53;98315.34;10325251;28;754;-69
2024/01/17 00:28:34;;;;;;;;;;;;;;;16.12;39.42;98312.91;10324203;28;1973;-69
2024/01/17 00:33:30;;;;;;;;;;;;;;;16.11;39.40;98306.81;10324427;28;824;-69
2024/01/17 00:38:26;;;;;;;;;;;;;;;16.12;39.36;98299.78;10324533;28;952;-69
2024/01/17 00:43:22;;;;;;;;;;;;;;;16.11;39.58;98282.28;10324346;28;850;-69
2024/01/17 00:48:18;;;;;;;;;;;;;;;16.10;39.63;98262.22;10324218;28;1961;-69
2024/01/17 00:53:14;;;;;;;;;;;;;;;16.11;39.50;98242.88;10324255;28;894;-69
2024/01/17 00:58:10;;;;;;;;;;;;;;;16.09;39.65;98239.50;10324813;28;796;-69
2024/01/17 01:03:06;;;;;;;;;;;;;;;16.09;39.54;98239.50;10331469;28;764;-69
2024/01/17 01:08:02;;;;;;;;;;;;;;;16.08;39.49;98235.16;10331179;28;1907;-70
2024/01/17 01:12:57;;;;;;;;;;;;;;;16.08;39.47;98237.78;10330522;28;1166;-69
2024/01/17 01:17:53;;;;;;;;;;;;;;;16.08;39.43;98232.53;10330914;28;925;-69
2024/01/17 01:22:49;;;;;;;;;;;;;;;16.08;39.50;98214.13;10331265;28;863;-70
2024/01/17 01:27:45;;;;;;;;;;;;;;;16.06;39.67;98218.63;10330204;28;1989;-70
2024/01/17 01:32:41;;;;;;;;;;;;;;;16.06;39.66;98210.75;10329752;28;917;-69
2024/01/17 01:37:37;;;;;;;;;;;;;;;16.05;39.82;98204.66;10330465;28;869;-69
2024/01/17 01:42:34;;;;;;;;;;;;;;;16.05;39.68;98190.69;10330052;28;858;-69
2024/01/17 01:47:30;;;;;;;;;;;;;;;16.04;39.60;98176.69;10329853;28;895;-69
2024/01/17 01:52:26;;;;;;;;;;;;;;;16.05;39.59;98183.63;10330765;28;1959;-69
2024/01/17 01:57:21;;;;;;;;;;;;;;;16.03;39.56;98164.47;10330116;28;802;-69
2024/01/17 02:02:17;;;;;;;;;;;;;;;16.04;39.67;98157.47;10329288;28;767;-69
2024/01/17 02:07:13;;;;;;;;;;;;;;;16.04;39.90;98153.03;10328954;28;850;-69
2024/01/17 02:12:10;;;;;;;;;;;;;;;16.02;39.76;98149.66;10328162;28;1956;-69
2024/01/17 02:17:06;;;;;;;;;;;;;;;16.03;39.60;98140.00;10329338;28;938;-70
2024/01/17 02:22:02;;;;;;;;;;;;;;;16.01;39.76;98121.72;10328402;28;846;-70
2024/01/17 02:26:59;;;;;;;;;;;;;;;16.03;39.70;98116.34;10328829;28;1277;-69
2024/01/17 02:31:55;;;;;;;;;;;;;;;16.03;39.83;98105.81;10327858;28;1981;-70
2024/01/17 02:36:51;;;;;;;;;;;;;;;16.00;39.55;98089.31;10328065;28;810;-70
2024/01/17 02:41:47;;;;;;;;;;;;;;;16.00;39.58;98075.31;10327793;28;850;-69
2024/01/17 02:46:42;;;;;;;;;;;;;;;16.00;39.64;98063.03;10328289;28;948;-69
2024/01/17 02:51:38;;;;;;;;;;;;;;;16.00;39.56;98056.94;10326591;28;1889;-69
2024/01/17 02:56:34;;;;;;;;;;;;;;;15.98;39.51;98057.03;10327041;28;1018;-69
2024/01/17 03:01:30;;;;;;;;;;;;;;;16.00;39.53;98044.63;10326262;28;1273;-69
2024/01/17 03:06:26;;;;;;;;;;;;;;;15.98;39.61;98032.53;10326625;28;754;-69
2024/01/17 03:11:22;;;;;;;;;;;;;;;15.97;39.51;98026.44;10327169;28;1953;-69
2024/01/17 03:16:19;;;;;;;;;;;;;;;15.97;39.70;98025.59;10326380;28;798;-70
2024/01/17 03:21:16;;;;;;;;;;;;;;;15.95;39.64;98014.31;10325776;28;845;-70
2024/01/17 03:26:11;;;;;;;;;;;;;;;15.97;39.61;98015.91;10325166;28;1316;-70
2024/01/17 03:31:08;;;;;;;;;;;;;;;15.96;39.65;98002.91;10325866;28;1914;-70
2024/01/17 03:36:05;;;;;;;;;;;;;;;15.95;39.46;97996.78;10325626;28;877;-70
2024/01/17 03:41:02;;;;;;;;;;;;;;;15.95;39.54;97985.44;10326520;28;887;-69
2024/01/17 03:45:58;;;;;;;;;;;;;;;15.95;39.50;97985.44;10325692;28;802;-69
2024/01/17 03:50:54;;;;;;;;;;;;;;;15.93;39.47;97972.41;10326046;28;1897;-69
2024/01/17 03:55:50;;;;;;;;;;;;;;;15.94;39.56;97963.56;10324753;28;1016;-69
2024/01/17 04:00:45;;;;;;;;;;;;;;;15.94;39.58;97939.09;10325302;28;755;-69
2024/01/17 04:05:43;;;;;;;;;;;;;;;15.92;39.45;97926.03;10325226;28;783;-69
2024/01/17 04:10:39;;;;;;;;;;;;;;;15.93;39.46;97906.72;10324888;28;1890;-69
2024/01/17 04:15:35;;;;;;;;;;;;;;;15.95;39.58;97914.47;10325548;28;946;-69
2024/01/17 04:20:30;;;;;;;;;;;;;;;15.94;39.52;97895.25;10324804;28;867;-69
2024/01/17 04:25:26;;;;;;;;;;;;;;;15.96;39.64;97882.03;10324857;28;1287;-70
2024/01/17 04:30:22;;;;;;;;;;;;;;;15.97;39.43;97857.41;10324883;28;1898;-70
2024/01/17 04:35:18;;;;;;;;;;;;;;;15.99;39.47;97839.78;10328376;28;748;-70
2024/01/17 04:40:15;;;;;;;;;;;;;;;15.98;39.56;97817.91;10332308;28;1641;-69
2024/01/17 04:45:12;;;;;;;;;;;;;;;16.00;39.47;97808.13;10332819;28;758;-69
2024/01/17 04:50:08;;;;;;;;;;;;;;;16.01;39.53;97798.47;10332394;28;1992;-69
2024/01/17 04:55:04;;;;;;;;;;;;;;;15.99;39.39;97795.94;10331770;28;863;-69
2024/01/17 05:00:00;;;;;;;;;;;;;;;16.02;39.52;97787.00;10331718;28;920;-69
2024/01/17 05:04:56;;;;;;;;;;;;;;;16.02;39.31;97779.13;10331501;28;968;-69
2024/01/17 05:09:52;;;;;;;;;;;;;;;16.02;39.45;97759.91;10331106;28;1944;-69
2024/01/17 05:14:48;;;;;;;;;;;;;;;16.07;39.23;97752.53;10332441;28;888;-70
2024/01/17 05:19:44;;;;;;;;;;;;;;;16.05;39.59;97749.19;10331410;28;1683;-69
2024/01/17 05:24:40;;;;;;;;;;;;;;;16.08;39.40;97746.34;10331344;28;858;-69
2024/01/17 05:29:43;;;;;;;;;;;;;;;16.09;39.34;97727.00;10329593;28;1910;-69
2024/01/17 05:34:38;;;;;;;;;;;;;;;16.09;39.39;97708.63;10331283;28;814;-70
2024/01/17 05:39:34;;;;;;;;;;;;;;;16.08;39.43;97699.88;10330345;28;731;-69
2024/01/17 05:44:30;;;;;;;;;;;;;;;16.09;39.45;97683.16;10329270;28;757;-69
2024/01/17 05:49:26;;;;;;;;;;;;;;;16.11;39.24;97675.16;10329492;28;1947;-69
2024/01/17 05:54:22;;;;;;;;;;;;;;;16.11;39.24;97685.66;10329069;28;1012;-69
2024/01/17 05:59:18;;;;;;;;;;;;;;;16.11;39.35;97678.66;10330025;28;934;-69
2024/01/17 06:04:14;;;;;;;;;;;;;;;16.10;39.22;97674.31;10329845;28;791;-69
2024/01/17 06:09:10;;;;;;;;;;;;;;;16.13;39.19;97666.22;10329346;28;1894;-69
2024/01/17 06:14:06;;;;;;;;;;;;;;;16.14;39.26;97664.47;10328968;28;794;-69
2024/01/17 06:19:02;;;;;;;;;;;;;;;16.13;39.02;97653.09;10329821;28;889;-70
2024/01/17 06:23:58;;;;;;;;;;;;;;;16.14;39.36;97643.44;10328492;28;929;-69
2024/01/17 06:28:54;;;;;;;;;;;;;;;16.15;39.19;97634.59;10327684;28;1914;-69
2024/01/17 06:33:50;;;;;;;;;;;;;;;16.16;39.10;97631.84;10328543;28;814;-70
2024/01/17 06:38:45;;;;;;;;;;;;;;;16.14;39.36;97618.00;10328197;28;972;-70
2024/01/17 06:43:41;;;;;;;;;;;;;;;16.16;39.37;97616.06;10327661;28;787;-69
2024/01/17 06:48:37;;;;;;;;;;;;;;;16.19;39.32;97620.28;10327360;28;1890;-69
2024/01/17 06:53:34;;;;;;;;;;;;;;;16.20;39.14;97612.28;10327316;28;770;-69
2024/01/17 06:58:30;;;;;;;;;;;;;;;16.20;39.23;97611.44;10326812;28;943;-69
2024/01/17 07:03:26;;;;;;;;;;;;;;;16.23;39.30;97595.47;10326917;28;1039;-70
2024/01/17 07:08:22;;;;;;;;;;;;;;;16.26;39.33;97595.22;10327102;28;1898;-70
2024/01/17 07:13:18;;;;;;;;;;;;;;;16.26;39.26;97582.09;10325891;28;841;-69
2024/01/17 07:18:14;;;;;;;;;;;;;;;16.27;39.31;97575.91;10327793;28;877;-75
2024/01/17 07:23:10;;;;;;;;;;;;;;;16.27;39.60;97572.41;10326268;28;814;-70
2024/01/17 07:28:06;;;;;;;;;;;;;;;16.28;39.44;97556.53;10326027;28;1910;-70
2024/01/17 07:33:03;;;;;;;;;;;;;;;16.31;39.29;97556.31;10325970;28;823;-70
2024/01/17 07:37:59;;;;;;;;;;;;;;;16.33;39.58;97533.41;10325748;28;899;-71
2024/01/17 07:42:55;;;;;;;;;;;;;;;16.34;39.79;97527.16;10325553;28;890;-68
2024/01/17 07:47:51;;;;;;;;;;;;;;;16.33;39.92;97507.09;10325550;28;1036;-70
2024/01/17 07:52:46;;;;;;;;;;;;;;;16.28;39.91;97498.72;10325398;28;1894;-70
2024/01/17 07:57:42;;;;;;;;;;;;;;;16.28;40.10;97485.56;10325964;28;869;-69
2024/01/17 08:02:39;;;;;;;;;;;;;;;16.25;40.05;97470.03;10325860;28;859;-70
2024/01/17 08:07:35;;;;;;;;;;;;;;;16.23;40.01;97463.19;10325158;28;887;-73
2024/01/17 08:12:30;;;;;;;;;;;;;;;16.18;39.96;97466.16;10333303;28;1962;-70
2024/01/17 08:17:26;;;;;;;;;;;;;;;16.14;39.89;97441.06;10333181;28;822;-74
2024/01/17 08:22:22;;;;;;;;;;;;;;;16.14;39.90;97428.75;10333636;28;823;-69
2024/01/17 08:27:18;;;;;;;;;;;;;;;16.16;39.83;97418.13;10333439;28;1359;-70
2024/01/17 08:32:14;;;;;;;;;;;;;;;16.17;39.78;97411.94;10329661;28;1973;-68
2024/01/17 08:37:10;;;;;;;;;;;;;;;16.16;40.02;97395.31;10332152;28;798;-73
2024/01/17 08:42:06;;;;;;;;;;;;;;;16.17;39.82;97375.13;10331164;28;1011;-70
2024/01/17 08:47:02;;;;;;;;;;;;;;;16.20;39.84;97372.28;10331486;28;833;-69
2024/01/17 08:51:59;;;;;;;;;;;;;;;16.21;39.86;97368.69;10331825;28;1961;-70
2024/01/17 08:56:55;;;;;;;;;;;;;;;16.23;39.92;97358.06;10331290;28;871;-70
2024/01/17 09:01:52;;;;;;;;;;;;;;;16.23;39.90;97348.38;10331191;28;1008;-67
2024/01/17 09:06:48;;;;;;;;;;;;;;;16.21;39.78;97340.59;10332034;28;916;-70
2024/01/17 09:11:45;;;;;;;;;;;;;;;16.23;39.71;97327.34;10331928;28;1901;-69
2024/01/17 09:16:41;;;;;;;;;;;;;;;16.26;39.60;97329.75;10331351;28;937;-69
2024/01/17 09:21:37;;;;;;;;;;;;;;;16.26;39.62;97329.75;10331729;28;791;-70
2024/01/17 09:26:33;;;;;;;;;;;;;;;16.28;39.60;97322.59;10330121;28;1511;-69
2024/01/17 09:31:28;;;;;;;;;;;;;;;16.28;39.54;97330.47;10331111;28;1914;-70
2024/01/17 09:36:25;;;;;;;;;;;;;;;16.27;39.59;97313.03;10330393;28;925;-70
2024/01/17 09:41:20;;;;;;;;;;;;;;;16.28;39.47;97314.72;10330866;28;914;-69
2024/01/17 09:46:16;;;;;;;;;;;;;;;16.27;39.75;97302.53;10330645;28;934;-69
2024/01/17 09:51:12;;;;;;;;;;;;;;;16.28;39.68;97301.56;10329782;28;1898;-69
2024/01/17 09:56:08;;;;;;;;;;;;;;;16.30;39.52;97297.03;10330282;28;896;-69
2024/01/17 10:01:04;;;;;;;;;;;;;;;16.29;39.51;97284.81;10329731;28;873;-69
2024/01/17 10:06:00;;;;;;;;;;;;;;;16.30;39.47;97273.38;10329267;28;775;-69
2024/01/17 10:10:56;;;;;;;;;;;;;;;16.31;39.44;97272.41;10329832;28;1910;-69
2024/01/17 10:15:52;;;;;;;;;;;;;;;16.30;39.69;97254.97;10328894;28;1056;-69
2024/01/17 10:20:48;;;;;;;;;;;;;;;16.35;39.46;97246.75;10329272;28;802;-69
2024/01/17 10:25:44;;;;;;;;;;;;;;;16.34;39.45;97238.00;10328448;28;1397;-70
2024/01/17 10:30:40;;;;;;;;;;;;;;;16.34;39.48;97232.75;10327823;28;1910;-70
2024/01/17 10:35:36;;;;;;;;;;;;;;;16.27;39.50;97221.03;10328064;28;862;-76
2024/01/17 10:40:32;;;;;;;;;;;;;;;16.21;39.57;97224.13;10327758;28;953;-70
2024/01/17 10:45:29;;;;;;;;;;;;;;;16.22;39.30;97215.31;10328270;28;756;-70
2024/01/17 10:50:25;;;;;;;;;;;;;;;16.27;39.27;97207.91;10325332;28;1885;-70
2024/01/17 10:55:21;;;;;;;;;;;;;;;16.29;38.99;97199.88;10326161;28;917;-70
2024/01/17 11:00:21;;;;;;;;;;;;;;;16.28;39.14;97204.31;10327042;28;929;-70
2024/01/17 11:05:17;;;;;;;;;;;;;;;16.31;39.13;97190.09;10326998;28;955;-70
2024/01/17 11:10:13;;;;;;;;;;;;;;;16.29;38.95;97190.19;10325964;28;1886;-70
2024/01/17 11:15:09;;;;;;;;;;;;;;;16.33;38.96;97186.38;10325732;28;763;-75
2024/01/17 11:20:08;;;;;;;;;;;;;;;16.34;39.23;97177.53;10326167;28;797;-71
2024/01/17 11:25:03;;;;;;;;;;;;;;;16.34;39.18;97163.56;10325745;28;1085;-69
2024/01/17 11:29:59;;;;;;;;;;;;;;;16.32;39.31;97149.69;10325848;28;1910;-70
2024/01/17 11:34:56;;;;;;;;;;;;;;;16.28;39.40;97149.09;10325333;28;921;-72
2024/01/17 11:39:52;;;;;;;;;;;;;;;16.29;39.18;97145.50;10326265;28;925;-73
2024/01/17 11:44:48;;;;;;;;;;;;;;;16.33;39.16;97140.88;10324225;28;826;-70
2024/01/17 11:49:45;;;;;;;;;;;;;;;16.31;39.23;97125.22;10325914;28;1948;-75
2024/01/17 11:54:41;;;;;;;;;;;;;;;16.34;39.09;97119.69;10325141;28;861;-70
2024/01/17 11:59:37;;;;;;;;;;;;;;;16.31;39.19;97096.28;10325050;28;735;-70
2024/01/17 12:04:33;;;;;;;;;;;;;;;16.33;39.17;97090.94;10324064;28;928;-70
2024/01/17 12:09:29;;;;;;;;;;;;;;;16.34;39.32;97082.06;10324792;28;1944;-71
2024/01/17 12:14:25;;;;;;;;;;;;;;;16.36;39.41;97081.00;10324620;28;799;-70
2024/01/17 12:19:21;;;;;;;;;;;;;;;16.34;39.38;97067.13;10324927;28;865;-71
2024/01/17 12:24:17;;;;;;;;;;;;;;;16.36;39.39;97056.50;10324270;28;782;-70
2024/01/17 12:29:16;;;;;;;;;;;;;;;16.35;39.32;97050.41;10325382;28;1976;-70
2024/01/17 12:34:12;;;;;;;;;;;;;;;16.37;39.41;97035.38;10324727;28;912;-70
2024/01/17 12:39:08;;;;;;;;;;;;;;;16.37;39.31;97024.00;10325039;28;947;-70
2024/01/17 12:44:04;;;;;;;;;;;;;;;16.35;39.35;97005.72;10323835;28;875;-70
2024/01/17 12:49:01;;;;;;;;;;;;;;;16.37;39.30;96990.69;10324576;28;1953;-70
2024/01/17 12:53:57;;;;;;;;;;;;;;;16.36;39.57;96986.38;10324078;28;1070;-70
2024/01/17 12:58:53;;;;;;;;;;;;;;;16.42;39.38;96974.50;10332025;28;921;-70
2024/01/17 13:03:49;;;;;;;;;;;;;;;16.41;39.58;96972.84;10331047;28;860;-70
2024/01/17 13:08:45;;;;;;;;;;;;;;;16.39;39.53;96969.50;10331124;28;1893;-70
2024/01/17 13:13:41;;;;;;;;;;;;;;;16.42;39.52;96959.56;10331181;28;803;-70
2024/01/17 13:18:37;;;;;;;;;;;;;;;16.43;39.44;96960.41;10331248;28;799;-71
2024/01/17 13:23:33;;;;;;;;;;;;;;;16.40;39.73;96956.25;10330217;28;891;-70
2024/01/17 13:28:28;;;;;;;;;;;;;;;16.40;39.67;96948.34;10331035;28;1906;-69
2024/01/17 13:33:25;;;;;;;;;;;;;;;16.35;39.73;96934.75;10330093;28;889;-72
2024/01/17 13:38:25;;;;;;;;;;;;;;;16.38;39.63;96929.25;10330560;28;1015;-72
2024/01/17 13:43:21;;;;;;;;;;;;;;;16.39;39.56;96927.44;10329769;28;920;-72
2024/01/17 13:48:17;;;;;;;;;;;;;;;16.37;39.49;96924.09;10329533;28;1902;-72
2024/01/17 13:53:28;;;;;;;;;;;;;;;16.38;39.51;96929.25;10328733;28;834;-73
2024/01/17 13:58:24;;;;;;;;;;;;;;;16.37;39.55;96930.22;10329321;28;806;-73
2024/01/17 14:03:20;;;;;;;;;;;;;;;16.39;39.62;96916.94;10329568;28;859;-73
2024/01/17 14:08:16;;;;;;;;;;;;;;;16.40;39.75;96908.94;10328118;28;1898;-70
2024/01/17 14:13:13;;;;;;;;;;;;;;;16.40;39.85;96903.66;10328282;28;747;-70
2024/01/17 14:18:09;;;;;;;;;;;;;;;16.43;39.69;96897.31;10328720;28;770;-70
2024/01/17 14:23:05;;;;;;;;;;;;;;;16.42;39.61;96890.38;10327923;28;858;-70
2024/01/17 14:28:01;;;;;;;;;;;;;;;16.41;39.61;96886.09;10327797;28;1694;-69
2024/01/17 14:32:57;;;;;;;;;;;;;;;16.43;39.64;96890.25;10327530;28;1898;-70
2024/01/17 14:37:53;;;;;;;;;;;;;;;16.44;39.66;96886.66;10327991;28;830;-74
2024/01/17 14:42:49;;;;;;;;;;;;;;;16.36;39.65;96877.75;10327075;28;862;-75
2024/01/17 14:47:45;;;;;;;;;;;;;;;16.37;39.74;96882.91;10326934;28;830;-69
2024/01/17 14:52:41;;;;;;;;;;;;;;;16.40;39.85;96889.66;10326436;28;1885;-70
2024/01/17 14:57:37;;;;;;;;;;;;;;;16.40;39.92;96893.16;10326774;28;1188;-70
2024/01/17 15:02:33;;;;;;;;;;;;;;;16.41;40.00;96886.09;10327208;28;855;-69
2024/01/17 15:07:29;;;;;;;;;;;;;;;16.41;40.15;96876.41;10326424;28;859;-71
2024/01/17 15:12:25;;;;;;;;;;;;;;;16.41;40.08;96888.72;10326225;28;1949;-70
2024/01/17 15:17:21;;;;;;;;;;;;;;;16.41;40.21;96879.03;10326442;28;804;-69
2024/01/17 15:22:17;;;;;;;;;;;;;;;16.42;40.18;96875.44;10325887;28;767;-70
2024/01/17 15:27:13;;;;;;;;;;;;;;;16.39;40.16;96869.63;10325976;28;1104;-70
2024/01/17 15:32:09;;;;;;;;;;;;;;;16.35;40.40;96868.22;10325698;28;1994;-70
2024/01/17 15:37:05;;;;;;;;;;;;;;;16.32;40.27;96877.19;10326118;28;834;-70
2024/01/17 15:42:00;;;;;;;;;;;;;;;16.32;40.21;96866.69;10325718;28;858;-70
2024/01/17 15:46:56;;;;;;;;;;;;;;;16.30;40.50;96865.13;10324835;28;831;-70
2024/01/17 15:51:52;;;;;;;;;;;;;;;16.30;40.20;96871.22;10325096;28;1891;-70
2024/01/17 15:56:48;;;;;;;;;;;;;;;16.31;40.45;96872.88;10325163;28;905;-69
2024/01/17 16:01:44;;;;;;;;;;;;;;;16.31;40.50;96872.88;10325708;28;822;-70
2024/01/17 16:06:40;;;;;;;;;;;;;;;16.34;40.66;96869.97;10325000;28;922;-70
2024/01/17 16:11:36;;;;;;;;;;;;;;;16.34;40.67;96863.91;10324840;28;1937;-69
2024/01/17 16:16:32;;;;;;;;;;;;;;;16.35;40.83;96860.34;10325603;28;882;-70
2024/01/17 16:21:27;;;;;;;;;;;;;;;16.37;40.67;96851.34;10324972;28;924;-70
2024/01/17 16:26:23;;;;;;;;;;;;;;;16.36;40.63;96854.09;10324747;28;1416;-69
2024/01/17 16:31:19;;;;;;;;;;;;;;;16.38;40.59;96853.00;10329524;28;1906;-69
2024/01/17 16:36:15;;;;;;;;;;;;;;;16.40;40.68;96855.50;10332578;28;949;-69
2024/01/17 16:41:11;;;;;;;;;;;;;;;16.39;40.60;96859.94;10332961;28;838;-70
2024/01/17 16:46:07;;;;;;;;;;;;;;;16.40;40.58;96844.97;10333267;28;900;-70
2024/01/17 16:51:05;;;;;;;;;;;;;;;16.40;40.39;96853.72;10332095;28;1957;-70
2024/01/17 16:56:01;;;;;;;;;;;;;;;16.42;40.58;96849.16;10331669;28;926;-70
2024/01/17 17:00:57;;;;;;;;;;;;;;;16.42;40.58;96849.16;10332394;28;854;-70
2024/01/17 17:05:53;;;;;;;;;;;;;;;16.45;40.51;96853.31;10331404;28;753;-70
2024/01/17 17:10:49;;;;;;;;;;;;;;;16.44;40.70;96855.13;10330801;28;1953;-69
2024/01/17 17:15:45;;;;;;;;;;;;;;;16.47;40.64;96851.41;10331030;28;844;-69
2024/01/17 17:20:41;;;;;;;;;;;;;;;16.47;40.50;96850.56;10330221;28;1036;-70
2024/01/17 17:25:37;;;;;;;;;;;;;;;16.46;40.69;96860.25;10330538;28;1207;-71
2024/01/17 17:30:33;;;;;;;;;;;;;;;16.49;40.69;96867.88;10330588;28;1953;-70
2024/01/17 17:35:29;;;;;;;;;;;;;;;16.49;40.63;96881.03;10329855;28;898;-71
2024/01/17 17:40:25;;;;;;;;;;;;;;;16.50;40.81;96882.69;10330001;28;960;-70
2024/01/17 17:45:21;;;;;;;;;;;;;;;16.51;40.68;96883.53;10329850;28;837;-70
2024/01/17 17:50:17;;;;;;;;;;;;;;;16.52;40.57;96899.16;10330475;28;1947;-70
2024/01/17 17:55:13;;;;;;;;;;;;;;;16.53;40.57;96890.34;10329819;28;922;-70
2024/01/17 18:00:09;;;;;;;;;;;;;;;16.54;40.57;96888.53;10329742;28;765;-70
2024/01/17 18:05:05;;;;;;;;;;;;;;;16.54;40.56;96896.44;10329483;28;936;-70
2024/01/17 18:10:01;;;;;;;;;;;;;;;16.55;40.53;96890.19;10329258;28;1886;-70
2024/01/17 18:14:57;;;;;;;;;;;;;;;16.51;40.59;96900.16;10329062;28;746;-70
2024/01/17 18:19:53;;;;;;;;;;;;;;;16.55;40.32;96906.81;10329406;28;858;-70
2024/01/17 18:24:49;;;;;;;;;;;;;;;16.55;40.42;96898.09;10328659;28;779;-70
2024/01/17 18:29:45;;;;;;;;;;;;;;;16.56;40.34;96899.78;10328745;28;1914;-70
2024/01/17 18:34:40;;;;;;;;;;;;;;;16.57;40.41;96898.78;10328228;28;902;-70
2024/01/17 18:39:36;;;;;;;;;;;;;;;16.59;40.18;96902.97;10327392;28;858;-71
2024/01/17 18:44:32;;;;;;;;;;;;;;;16.57;40.19;96907.50;10327750;28;938;-70
2024/01/17 18:49:29;;;;;;;;;;;;;;;16.57;40.23;96910.16;10328104;28;1890;-70
2024/01/17 18:54:26;;;;;;;;;;;;;;;16.59;40.34;96917.91;10327701;28;942;-70
2024/01/17 18:59:22;;;;;;;;;;;;;;;16.59;40.04;96923.19;10326686;28;911;-70
2024/01/17 19:04:18;;;;;;;;;;;;;;;16.59;40.35;96933.69;10326912;28;992;-70
2024/01/17 19:09:15;;;;;;;;;;;;;;;16.60;40.33;96935.34;10326722;28;1894;-71
2024/01/17 19:14:12;;;;;;;;;;;;;;;16.62;40.15;96928.19;10326688;28;869;-71
2024/01/17 19:19:08;;;;;;;;;;;;;;;16.61;40.11;96940.50;10327011;28;832;-70
2024/01/17 19:24:04;;;;;;;;;;;;;;;16.61;40.08;96927.34;10326534;28;854;-70
2024/01/17 19:29:00;;;;;;;;;;;;;;;16.64;40.09;96945.50;10326561;28;1969;-70
2024/01/17 19:33:59;;;;;;;;;;;;;;;16.62;40.13;96951.84;10326601;28;1107;-70
2024/01/17 19:38:55;;;;;;;;;;;;;;;16.61;40.29;96958.91;10325829;28;910;-70
2024/01/17 19:43:51;;;;;;;;;;;;;;;16.65;40.16;96964.72;10326363;28;878;-70
2024/01/17 19:48:48;;;;;;;;;;;;;;;16.65;40.04;96962.09;10325578;28;1918;-70
2024/01/17 19:53:44;;;;;;;;;;;;;;;16.64;40.19;96969.16;10325649;28;845;-70
2024/01/17 19:58:40;;;;;;;;;;;;;;;16.64;40.11;96981.47;10324892;28;1379;-70
2024/01/17 20:03:38;;;;;;;;;;;;;;;16.64;40.17;96997.25;10324090;28;868;-70
2024/01/17 20:08:34;;;;;;;;;;;;;;;16.65;40.06;96991.03;10325072;28;1893;-70
2024/01/17 20:13:30;;;;;;;;;;;;;;;16.65;40.26;96985.78;10325657;28;882;-70
2024/01/17 20:18:26;;;;;;;;;;;;;;;16.67;40.10;97004.91;10325686;28;764;-70
2024/01/17 20:23:22;;;;;;;;;;;;;;;16.66;40.10;97018.97;10325061;28;810;-71
2024/01/17 20:28:20;;;;;;;;;;;;;;;16.65;39.99;97012.06;10324671;28;1295;-70
2024/01/17 20:33:15;;;;;;;;;;;;;;;16.68;40.15;97021.50;10324757;28;1967;-70
2024/01/17 20:38:13;;;;;;;;;;;;;;;16.67;40.00;97035.63;10325410;28;870;-71
2024/01/17 20:43:09;;;;;;;;;;;;;;;16.67;40.00;97035.63;10324531;28;875;-70
2024/01/17 20:48:05;;;;;;;;;;;;;;;16.66;40.04;97055.81;10323801;28;1227;-70
2024/01/17 20:53:01;;;;;;;;;;;;;;;16.64;40.14;97066.47;10324647;28;1890;-71
2024/01/17 20:57:57;;;;;;;;;;;;;;;16.63;40.14;97059.53;10324883;28;850;-71
2024/01/17 21:02:53;;;;;;;;;;;;;;;16.66;40.03;97055.81;10325084;28;909;-70
2024/01/17 21:07:49;;;;;;;;;;;;;;;16.63;39.97;97061.31;10324120;28;878;-71
2024/01/17 21:12:45;;;;;;;;;;;;;;;16.62;39.91;97065.75;10324000;28;1943;-70
2024/01/17 21:17:42;;;;;;;;;;;;;;;16.62;39.92;97075.44;10329003;28;762;-71
2024/01/17 21:22:37;;;;;;;;;;;;;;;16.60;40.01;97093.13;10332023;28;888;-71
2024/01/17 21:27:33;;;;;;;;;;;;;;;16.60;39.97;97108.91;10330734;28;1253;-70
2024/01/17 21:32:29;;;;;;;;;;;;;;;16.61;39.93;97114.06;10331232;28;1961;-70
2024/01/17 21:37:25;;;;;;;;;;;;;;;16.58;40.06;97126.59;10331137;28;798;-70
2024/01/17 21:42:21;;;;;;;;;;;;;;;16.56;39.97;97131.16;10331005;28;783;-71
2024/01/17 21:47:17;;;;;;;;;;;;;;;16.58;40.13;97121.34;10330383;28;963;-70
2024/01/17 21:52:13;;;;;;;;;;;;;;;16.57;40.10;97130.19;10330354;28;1948;-70
2024/01/17 21:57:09;;;;;;;;;;;;;;;16.50;39.91;97115.88;10330558;28;876;-70
2024/01/17 22:02:04;;;;;;;;;;;;;;;16.49;40.10;97112.41;10329104;28;945;-70
2024/01/17 22:07:01;;;;;;;;;;;;;;;16.48;40.04;97118.63;10330068;28;830;-70
2024/01/17 22:11:56;;;;;;;;;;;;;;;16.48;39.91;97125.66;10329755;28;1902;-71
2024/01/17 22:16:52;;;;;;;;;;;;;;;16.44;40.25;97132.97;10330246;28;907;-70
2024/01/17 22:21:48;;;;;;;;;;;;;;;16.42;40.20;97133.06;10328832;28;774;-71
2024/01/17 22:26:44;;;;;;;;;;;;;;;16.40;40.18;97134.16;10328532;28;1468;-70
2024/01/17 22:31:40;;;;;;;;;;;;;;;16.40;39.91;97156.03;10328356;28;1905;-71
2024/01/17 22:36:36;;;;;;;;;;;;;;;16.38;40.09;97152.69;10328840;28;894;-70
2024/01/17 22:41:32;;;;;;;;;;;;;;;16.37;40.21;97164.19;10327362;28;969;-70
2024/01/17 22:46:28;;;;;;;;;;;;;;;16.37;40.04;97172.06;10328454;28;857;-70
2024/01/17 22:51:23;;;;;;;;;;;;;;;16.36;40.20;97167.75;10327518;28;1890;-70
2024/01/17 22:56:19;;;;;;;;;;;;;;;16.36;40.10;97174.81;10328175;28;888;-70
2024/01/17 23:01:15;;;;;;;;;;;;;;;16.33;40.16;97173.25;10327373;28;815;-70
2024/01/17 23:06:11;;;;;;;;;;;;;;;16.33;40.15;97183.75;10327845;28;881;-70
2024/01/17 23:11:07;;;;;;;;;;;;;;;16.32;40.15;97195.25;10327417;28;1898;-70
2024/01/17 23:16:03;;;;;;;;;;;;;;;16.32;40.02;97202.28;10327250;28;967;-70
2024/01/17 23:20:58;;;;;;;;;;;;;;;16.30;40.02;97202.41;10325970;28;787;-70
2024/01/17 23:25:54;;;;;;;;;;;;;;;16.32;40.26;97189.13;10325951;28;1264;-70
2024/01/17 23:30:50;;;;;;;;;;;;;;;16.28;40.23;97204.31;10326462;28;2024;-70
2024/01/17 23:35:46;;;;;;;;;;;;;;;16.29;40.16;97198.09;10325410;28;917;-70
2024/01/17 23:40:42;;;;;;;;;;;;;;;16.30;40.16;97214.72;10325941;28;866;-70
2024/01/17 23:45:38;;;;;;;;;;;;;;;16.27;40.02;97226.31;10325865;28;802;-70
2024/01/17 23:50:34;;;;;;;;;;;;;;;16.28;40.16;97235.03;10325633;28;1909;-70
2024/01/17 23:55:29;;;;;;;;;;;;;;;16.26;40.09;97236.94;10326205;28;907;-70
